Time;durP1;ratioP1;P1;durP2;ratioP2;P2;SDS_P1;SDS_P2;PMS_P1;PMS_P2;Temp;Humidity;BMP_temperature;BMP_pressure;BME280_temperature;BME280_humidity;BME280_pressure;Samples;Min_cycle;Max_cycle;Signal;HPM_P1;HPM_P2
2022/07/01 00:02:19;;;;;;;;;;;;;;;16.05;100.00;98688.63;5094107;28;19972;-81
2022/07/01 00:04:46;;;;;;;;;;;;;;;16.08;100.00;98684.88;5092668;28;19924;-80
2022/07/01 00:07:48;;;;;;;;;;;;;;;15.30;100.00;98683.78;5096628;28;19947;-81
2022/07/01 00:10:16;;;;;;;;;;;;;;;15.50;100.00;98678.53;5093744;28;19924;-80
2022/07/01 00:12:43;;;;;;;;;;;;;;;15.67;100.00;98681.88;5093754;28;19924;-80
2022/07/01 00:15:10;;;;;;;;;;;;;;;15.78;100.00;98682.97;5092615;28;20027;-81
2022/07/01 00:17:37;;;;;;;;;;;;;;;15.69;100.00;98687.81;5093876;28;19928;-81
2022/07/01 00:20:05;;;;;;;;;;;;;;;15.67;100.00;98681.88;5093552;28;19939;-81
2022/07/01 00:22:32;;;;;;;;;;;;;;;15.86;100.00;98684.25;5093782;28;20437;-80
2022/07/01 00:25:00;;;;;;;;;;;;;;;15.73;100.00;98689.25;5093837;28;19924;-80
2022/07/01 00:27:27;;;;;;;;;;;;;;;15.85;100.00;98684.72;5093448;28;19963;-80
2022/07/01 00:29:54;;;;;;;;;;;;;;;15.78;100.00;98677.34;5075610;28;19946;-80
2022/07/01 00:32:22;;;;;;;;;;;;;;;15.83;100.00;98673.91;5075780;28;20304;-81
2022/07/01 00:34:49;;;;;;;;;;;;;;;15.86;100.00;98672.97;5093329;28;20397;-81
2022/07/01 00:37:16;;;;;;;;;;;;;;;16.08;100.00;98672.84;5092132;28;19971;-80
2022/07/01 00:39:44;;;;;;;;;;;;;;;16.08;100.00;98667.97;5075524;28;19978;-81
2022/07/01 00:42:11;;;;;;;;;;;;;;;16.07;100.00;98668.44;5093391;28;19924;-81
2022/07/01 00:44:38;;;;;;;;;;;;;;;15.90;100.00;98667.94;5075255;28;19931;-81
2022/07/01 00:47:08;;;;;;;;;;;;;;;15.65;100.00;98673.88;5092130;28;20297;-80
2022/07/01 00:49:35;;;;;;;;;;;;;;;15.75;100.00;98669.81;5093248;28;20292;-80
2022/07/01 00:52:03;;;;;;;;;;;;;;;15.03;100.00;98669.59;5093152;28;19925;-80
2022/07/01 00:54:30;;;;;;;;;;;;;;;14.56;100.00;98673.88;5092152;28;19924;-81
2022/07/01 00:56:57;;;;;;;;;;;;;;;13.93;100.00;98679.81;5093307;28;19924;-81
2022/07/01 00:59:24;;;;;;;;;;;;;;;13.81;100.00;98675.00;5093183;28;19928;-80
2022/07/01 01:01:51;;;;;;;;;;;;;;;13.88;100.00;98672.75;5092973;28;20426;-80
2022/07/01 01:04:19;;;;;;;;;;;;;;;13.86;100.00;98672.41;5091516;28;19924;-80
2022/07/01 01:06:46;;;;;;;;;;;;;;;14.00;100.00;98665.50;5092896;28;19935;-80
2022/07/01 01:09:13;;;;;;;;;;;;;;;14.32;100.00;98667.97;5092142;28;19925;-80
2022/07/01 01:11:40;;;;;;;;;;;;;;;14.40;100.00;98672.09;5091266;28;19931;-80
2022/07/01 01:14:07;;;;;;;;;;;;;;;14.75;100.00;98678.38;5091603;28;19932;-80
2022/07/01 01:16:35;;;;;;;;;;;;;;;15.02;100.00;98673.69;5092828;28;19924;-80
2022/07/01 01:19:06;;;;;;;;;;;;;;;14.90;100.00;98668.94;5091464;28;19931;-81
2022/07/01 01:21:34;;;;;;;;;;;;;;;14.81;100.00;98663.25;5091620;28;19997;-81
2022/07/01 01:24:02;;;;;;;;;;;;;;;14.46;100.00;98662.56;5091730;28;19928;-80
2022/07/01 01:26:29;;;;;;;;;;;;;;;14.80;100.00;98663.72;5075010;28;19955;-80
2022/07/01 01:28:57;;;;;;;;;;;;;;;15.12;100.00;98664.00;5093229;28;19960;-80
2022/07/01 01:31:33;;;;;;;;;;;;;;;15.00;100.00;98662.09;5091671;28;20019;-81
2022/07/01 01:34:00;;;;;;;;;;;;;;;15.21;100.00;98664.03;5092642;28;19931;-80
2022/07/01 01:36:28;;;;;;;;;;;;;;;15.18;100.00;98652.91;5091553;28;19931;-80
2022/07/01 01:38:58;;;;;;;;;;;;;;;15.20;100.00;98656.06;5092860;28;19924;-81
2022/07/01 01:41:25;;;;;;;;;;;;;;;15.22;100.00;98659.97;5091719;28;20520;-80
2022/07/01 01:43:52;;;;;;;;;;;;;;;15.07;100.00;98664.59;5093024;28;19924;-80
2022/07/01 01:46:19;;;;;;;;;;;;;;;15.10;100.00;98669.31;5074460;28;19963;-81
2022/07/01 01:48:46;;;;;;;;;;;;;;;15.15;100.00;98665.09;5091502;28;19924;-81
2022/07/01 01:51:14;;;;;;;;;;;;;;;15.05;100.00;98667.13;5091322;28;19924;-80
2022/07/01 01:53:41;;;;;;;;;;;;;;;15.26;100.00;98666.25;5091433;28;19931;-81
2022/07/01 01:56:08;;;;;;;;;;;;;;;15.29;100.00;98662.50;5091557;28;19969;-81
2022/07/01 01:58:35;;;;;;;;;;;;;;;15.35;100.00;98663.47;5091551;28;19924;-80
2022/07/01 02:01:02;;;;;;;;;;;;;;;15.23;100.00;98661.56;5091056;28;20303;-80
2022/07/01 02:03:29;;;;;;;;;;;;;;;15.09;100.00;98666.97;5091334;28;19924;-80
2022/07/01 02:05:56;;;;;;;;;;;;;;;15.18;100.00;98662.16;5092419;28;19924;-81
2022/07/01 02:08:23;;;;;;;;;;;;;;;15.31;100.00;98657.19;5092486;28;19924;-81
2022/07/01 02:10:50;;;;;;;;;;;;;;;15.14;100.00;98661.53;5091373;28;19925;-81
2022/07/01 02:13:19;;;;;;;;;;;;;;;15.28;100.00;98660.94;5091281;28;19924;-81
2022/07/01 02:15:46;;;;;;;;;;;;;;;15.05;100.00;98657.88;5092166;28;19935;-80
2022/07/01 02:18:13;;;;;;;;;;;;;;;15.26;100.00;98654.22;5094697;28;19924;-80
2022/07/01 02:20:41;;;;;;;;;;;;;;;15.18;100.00;98648.09;5095861;28;19924;-80
2022/07/01 02:23:08;;;;;;;;;;;;;;;15.14;100.00;98655.91;5094825;28;20302;-81
2022/07/01 02:25:36;;;;;;;;;;;;;;;15.26;100.00;98652.19;5096027;28;19951;-81
2022/07/01 02:28:03;;;;;;;;;;;;;;;15.35;100.00;98663.47;5078162;28;19924;-81
2022/07/01 02:30:36;;;;;;;;;;;;;;;15.20;100.00;98659.66;5094527;28;20010;-81
2022/07/01 02:33:05;;;;;;;;;;;;;;;15.16;100.00;98663.88;5095825;28;20363;-81
2022/07/01 02:35:33;;;;;;;;;;;;;;;15.10;100.00;98660.88;5094737;28;19925;-81
2022/07/01 02:38:00;;;;;;;;;;;;;;;15.20;100.00;98654.03;5095669;28;19928;-81
2022/07/01 02:40:28;;;;;;;;;;;;;;;15.00;100.00;98656.47;5095788;28;19924;-81
2022/07/01 02:42:55;;;;;;;;;;;;;;;15.01;100.00;98652.38;5095531;28;19928;-81
2022/07/01 02:45:22;;;;;;;;;;;;;;;15.10;100.00;98648.84;5094319;28;19928;-81
2022/07/01 02:47:49;;;;;;;;;;;;;;;14.68;100.00;98651.31;5094338;28;20362;-81
2022/07/01 02:50:17;;;;;;;;;;;;;;;14.75;100.00;98655.88;5095636;28;19928;-81
2022/07/01 02:52:48;;;;;;;;;;;;;;;14.88;100.00;98659.38;5095535;28;19925;-81
2022/07/01 02:55:15;;;;;;;;;;;;;;;15.05;100.00;98669.13;5094289;28;19931;-81
2022/07/01 02:57:43;;;;;;;;;;;;;;;15.13;100.00;98671.19;5094267;28;19947;-81
2022/07/01 03:00:13;;;;;;;;;;;;;;;14.94;100.00;98668.78;5095025;28;19924;-81
2022/07/01 03:02:40;;;;;;;;;;;;;;;15.10;100.00;98669.31;5095236;28;20394;-81
2022/07/01 03:05:08;;;;;;;;;;;;;;;15.29;100.00;98673.78;5095390;28;19931;-81
2022/07/01 03:07:35;;;;;;;;;;;;;;;15.03;100.00;98689.28;5094120;28;20375;-81
2022/07/01 03:10:06;;;;;;;;;;;;;;;15.05;100.00;98681.19;5093867;28;19924;-81
2022/07/01 03:12:37;;;;;;;;;;;;;;;15.28;100.00;98689.06;5095160;28;19924;-81
2022/07/01 03:15:12;;;;;;;;;;;;;;;15.44;100.00;98694.50;5094009;28;19947;-81
2022/07/01 03:17:40;;;;;;;;;;;;;;;15.03;100.00;98686.47;5093780;28;20003;-81
2022/07/01 03:20:08;;;;;;;;;;;;;;;15.20;100.00;98685.00;5093716;28;19924;-81
2022/07/01 03:22:36;;;;;;;;;;;;;;;15.20;100.00;98685.00;5094950;28;19928;-81
2022/07/01 03:25:03;;;;;;;;;;;;;;;15.21;100.00;98682.94;5093758;28;19924;-81
2022/07/01 03:27:30;;;;;;;;;;;;;;;15.48;100.00;98686.66;5094471;28;20605;-81
2022/07/01 03:29:59;;;;;;;;;;;;;;;15.42;100.00;98691.34;5094888;28;19932;-80
2022/07/01 03:32:28;;;;;;;;;;;;;;;15.43;100.00;98690.13;5060421;28;19924;-81
2022/07/01 03:34:55;;;;;;;;;;;;;;;15.30;100.00;98691.41;5093317;28;19924;-81
2022/07/01 03:37:22;;;;;;;;;;;;;;;15.16;100.00;98698.41;5093566;28;20007;-81
2022/07/01 03:39:50;;;;;;;;;;;;;;;15.39;100.00;98697.09;5094653;28;19923;-81
2022/07/01 03:42:18;;;;;;;;;;;;;;;15.55;100.00;98696.84;5094160;28;19924;-81
2022/07/01 03:44:45;;;;;;;;;;;;;;;15.59;100.00;98703.13;5076687;28;20023;-81
2022/07/01 03:47:12;;;;;;;;;;;;;;;15.68;100.00;98700.31;5094274;28;20283;-81
2022/07/01 03:49:39;;;;;;;;;;;;;;;15.64;100.00;98700.50;5093069;28;20302;-81
2022/07/01 03:52:06;;;;;;;;;;;;;;;15.69;100.00;98707.53;5094377;28;20375;-81
2022/07/01 03:54:37;;;;;;;;;;;;;;;15.86;100.00;98701.13;5094259;28;20290;-81
2022/07/01 03:57:08;;;;;;;;;;;;;;;15.66;100.00;98705.66;5094104;28;19967;-81
2022/07/01 03:59:36;;;;;;;;;;;;;;;15.77;100.00;98706.75;5093126;28;19924;-81
2022/07/01 04:02:03;;;;;;;;;;;;;;;15.42;100.00;98718.72;5092888;28;19977;-81
2022/07/01 04:04:31;;;;;;;;;;;;;;;15.73;100.00;98717.41;5093054;28;19924;-81
2022/07/01 04:06:59;;;;;;;;;;;;;;;15.68;100.00;98717.22;5094009;28;19970;-80
2022/07/01 04:09:28;;;;;;;;;;;;;;;15.82;100.00;98717.41;5092986;28;20357;-80
2022/07/01 04:11:55;;;;;;;;;;;;;;;16.00;100.00;98723.06;5093748;28;19931;-81
2022/07/01 04:14:24;;;;;;;;;;;;;;;15.96;100.00;98728.06;5092787;28;20402;-81
2022/07/01 04:16:51;;;;;;;;;;;;;;;15.88;100.00;98721.19;5093937;28;20382;-81
2022/07/01 04:19:19;;;;;;;;;;;;;;;15.88;100.00;98732.47;5093980;28;19924;-81
2022/07/01 04:24:33;;;;;;;;;;;;;;;15.93;100.00;98726.19;5092442;28;19924;-80
2022/07/01 04:27:00;;;;;;;;;;;;;;;16.00;100.00;98730.75;5092369;28;20371;-81
2022/07/01 04:29:30;;;;;;;;;;;;;;;15.95;100.00;98734.97;5092498;28;20380;-81
2022/07/01 04:31:58;;;;;;;;;;;;;;;15.85;100.00;98735.41;5093543;28;19924;-80
2022/07/01 04:34:25;;;;;;;;;;;;;;;15.78;100.00;98738.53;5092325;28;19924;-81
2022/07/01 04:36:52;;;;;;;;;;;;;;;15.69;100.00;98742.09;5092513;28;19924;-80
2022/07/01 04:39:19;;;;;;;;;;;;;;;15.87;100.00;98744.94;5075762;28;20256;-81
2022/07/01 04:42:00;;;;;;;;;;;;;;;15.79;100.00;98751.38;5074988;28;19931;-81
2022/07/01 04:44:35;;;;;;;;;;;;;;;15.91;100.00;98751.25;5093455;28;20397;-81
2022/07/01 04:47:04;;;;;;;;;;;;;;;15.84;100.00;98754.34;5092207;28;19930;-81
2022/07/01 04:49:31;;;;;;;;;;;;;;;15.85;100.00;98757.94;5092322;28;19931;-81
2022/07/01 04:51:58;;;;;;;;;;;;;;;15.91;100.00;98754.06;5092119;28;19924;-81
2022/07/01 04:54:25;;;;;;;;;;;;;;;16.00;100.00;98759.72;5092056;28;19931;-81
2022/07/01 04:56:53;;;;;;;;;;;;;;;15.76;100.00;98757.94;5093042;28;19924;-81
2022/07/01 04:59:20;;;;;;;;;;;;;;;15.72;100.00;98754.50;5075252;28;19931;-81
2022/07/01 05:01:50;;;;;;;;;;;;;;;15.40;100.00;98755.00;5092079;28;19924;-81
2022/07/01 05:04:18;;;;;;;;;;;;;;;15.66;100.00;98753.53;5092130;28;20398;-81
2022/07/01 05:06:45;;;;;;;;;;;;;;;15.74;100.00;98752.75;5075219;28;19930;-81
2022/07/01 05:09:13;;;;;;;;;;;;;;;15.71;100.00;98748.06;5091698;28;19928;-81
2022/07/01 05:11:40;;;;;;;;;;;;;;;15.83;100.00;98752.78;5091929;28;19935;-81
2022/07/01 05:14:07;;;;;;;;;;;;;;;15.49;100.00;98758.63;5091666;28;19930;-81
2022/07/01 05:16:34;;;;;;;;;;;;;;;15.70;100.00;98754.94;5074980;28;19924;-81
2022/07/01 05:22:01;;;;;;;;;;;;;;;15.86;100.00;98757.47;5092919;28;19931;-81
2022/07/01 05:24:30;;;;;;;;;;;;;;;15.92;100.00;98757.63;5091543;28;19989;-81
2022/07/01 05:26:58;;;;;;;;;;;;;;;16.03;100.00;98755.97;5091851;28;19924;-81
2022/07/01 05:29:26;;;;;;;;;;;;;;;15.89;100.00;98750.91;5092948;28;20332;-81
2022/07/01 05:31:53;;;;;;;;;;;;;;;15.93;100.00;98760.00;5091686;28;19970;-81
2022/07/01 05:34:20;;;;;;;;;;;;;;;16.05;100.00;98759.06;5092792;28;19947;-81
2022/07/01 05:36:47;;;;;;;;;;;;;;;15.92;100.00;98755.63;5092724;28;19925;-81
2022/07/01 05:39:15;;;;;;;;;;;;;;;15.97;100.00;98762.66;5091470;28;20433;-81
2022/07/01 05:41:42;;;;;;;;;;;;;;;16.09;100.00;98754.09;5091615;28;19924;-81
2022/07/01 05:44:09;;;;;;;;;;;;;;;15.84;100.00;98764.84;5091674;28;19925;-81
2022/07/01 05:46:36;;;;;;;;;;;;;;;16.09;100.00;98748.44;5091564;28;20306;-81
2022/07/01 05:49:03;;;;;;;;;;;;;;;15.99;100.00;98751.72;5091452;28;19931;-81
2022/07/01 05:51:31;;;;;;;;;;;;;;;16.16;100.00;98739.69;5091429;28;19924;-81
2022/07/01 05:53:58;;;;;;;;;;;;;;;16.11;100.00;98740.28;5095884;28;19924;-81
2022/07/01 05:56:25;;;;;;;;;;;;;;;15.96;100.00;98750.59;5095308;28;19924;-81
2022/07/01 05:58:53;;;;;;;;;;;;;;;15.85;100.00;98749.50;5095515;28;19924;-81
2022/07/01 06:01:20;;;;;;;;;;;;;;;16.19;100.00;98747.19;5095432;28;19978;-81
2022/07/01 06:03:47;;;;;;;;;;;;;;;16.06;100.00;98738.13;5095329;28;19928;-81
2022/07/01 06:06:14;;;;;;;;;;;;;;;16.24;100.00;98743.75;5095160;28;19955;-81
2022/07/01 06:08:41;;;;;;;;;;;;;;;15.99;100.00;98743.28;5096226;28;19925;-81
2022/07/01 06:11:08;;;;;;;;;;;;;;;15.93;100.00;98733.88;5096197;28;19932;-81
2022/07/01 06:13:35;;;;;;;;;;;;;;;16.32;100.00;98743.44;5096160;28;19932;-81
2022/07/01 06:16:02;;;;;;;;;;;;;;;16.16;100.00;98742.50;5096224;28;19924;-81
2022/07/01 06:18:30;;;;;;;;;;;;;;;16.27;100.00;98742.81;5078273;28;20333;-81
2022/07/01 06:20:56;;;;;;;;;;;;;;;16.51;100.00;98742.22;5094651;28;19935;-81
2022/07/01 06:23:23;;;;;;;;;;;;;;;16.55;100.00;98740.03;5095785;28;19924;-81
2022/07/01 06:25:50;;;;;;;;;;;;;;;16.12;100.00;98735.44;5095855;28;19993;-81
2022/07/01 06:28:17;;;;;;;;;;;;;;;16.41;100.00;98735.78;5095991;28;20290;-81
2022/07/01 06:30:45;;;;;;;;;;;;;;;16.51;100.00;98730.94;5094802;28;20450;-81
2022/07/01 06:33:12;;;;;;;;;;;;;;;16.66;100.00;98731.88;5095952;28;20374;-81
2022/07/01 06:35:40;;;;;;;;;;;;;;;16.95;100.00;98732.13;5094650;28;19931;-81
2022/07/01 06:38:07;;;;;;;;;;;;;;;16.76;100.00;98722.91;5094538;28;20302;-81
2022/07/01 06:40:34;;;;;;;;;;;;;;;16.72;100.00;98727.16;5095539;28;19931;-80
2022/07/01 06:43:01;;;;;;;;;;;;;;;17.04;100.00;98732.09;5094467;28;19931;-81
2022/07/01 06:45:28;;;;;;;;;;;;;;;17.00;100.00;98728.66;5095712;28;19960;-81
2022/07/01 06:47:55;;;;;;;;;;;;;;;17.00;100.00;98728.66;5094485;28;19973;-81
2022/07/01 06:50:22;;;;;;;;;;;;;;;17.03;100.00;98731.31;5094303;28;19924;-81
2022/07/01 06:52:50;;;;;;;;;;;;;;;16.79;100.00;98735.28;5095320;28;20018;-81
2022/07/01 06:55:17;;;;;;;;;;;;;;;16.89;100.00;98739.69;5094164;28;20035;-81
2022/07/01 06:57:44;;;;;;;;;;;;;;;16.87;100.00;98733.72;5077164;28;19924;-80
2022/07/01 07:00:12;;;;;;;;;;;;;;;16.70;100.00;98746.59;5095738;28;19924;-79
2022/07/01 07:02:39;;;;;;;;;;;;;;;16.64;100.00;98734.38;5094227;28;19924;-80
2022/07/01 07:05:06;;;;;;;;;;;;;;;16.54;100.00;98738.47;5093551;28;19938;-80
2022/07/01 07:07:59;;;;;;;;;;;;;;;16.18;100.00;98736.38;5077304;28;20308;-80
2022/07/01 07:10:29;;;;;;;;;;;;;;;16.44;100.00;98739.72;5093814;28;19928;-80
2022/07/01 07:12:56;;;;;;;;;;;;;;;16.36;100.00;98732.81;5095107;28;19930;-80
2022/07/01 07:15:23;;;;;;;;;;;;;;;16.43;100.00;98733.28;5093884;28;19931;-79
2022/07/01 07:17:51;;;;;;;;;;;;;;;16.42;100.00;98737.34;5095246;28;20337;-80
2022/07/01 07:20:18;;;;;;;;;;;;;;;16.93;100.00;98741.06;5076525;28;19924;-81
2022/07/01 07:22:45;;;;;;;;;;;;;;;17.08;100.00;98738.34;5093760;28;19924;-81
2022/07/01 07:25:12;;;;;;;;;;;;;;;16.99;100.00;98729.91;5093640;28;20005;-81
2022/07/01 07:27:39;;;;;;;;;;;;;;;16.92;100.00;98728.19;5094939;28;19959;-81
2022/07/01 07:30:06;;;;;;;;;;;;;;;16.91;100.00;98734.31;5094761;28;20451;-81
2022/07/01 07:32:33;;;;;;;;;;;;;;;16.76;100.00;98742.66;5094587;28;20026;-80
2022/07/01 07:35:00;;;;;;;;;;;;;;;16.85;100.00;98744.69;5094442;28;20022;-80
2022/07/01 07:37:32;;;;;;;;;;;;;;;16.65;100.00;98745.19;5093056;28;19924;-80
2022/07/01 07:39:59;;;;;;;;;;;;;;;16.85;100.00;98747.50;5093296;28;19924;-80
2022/07/01 07:42:27;;;;;;;;;;;;;;;17.11;100.00;98731.75;5093288;28;20363;-80
2022/07/01 07:44:54;;;;;;;;;;;;;;;16.86;100.00;98740.59;5094458;28;19931;-80
2022/07/01 07:47:21;;;;;;;;;;;;;;;16.88;100.00;98730.41;5092807;28;19928;-81
2022/07/01 07:49:48;;;;;;;;;;;;;;;16.90;100.00;98735.59;5092646;28;19931;-80
2022/07/01 07:52:15;;;;;;;;;;;;;;;16.92;100.00;98736.66;5092821;28;19967;-81
2022/07/01 07:54:43;;;;;;;;;;;;;;;16.70;100.00;98740.94;5093121;28;19947;-81
2022/07/01 07:57:10;;;;;;;;;;;;;;;17.12;100.00;98738.97;5094189;28;20382;-82
2022/07/01 07:59:37;;;;;;;;;;;;;;;17.15;100.00;98735.97;5094328;28;19935;-79
2022/07/01 08:02:04;;;;;;;;;;;;;;;17.12;100.00;98744.63;5075741;28;19924;-79
2022/07/01 08:04:31;;;;;;;;;;;;;;;17.30;100.00;98733.25;5093661;28;20272;-81
2022/07/01 08:06:58;;;;;;;;;;;;;;;17.77;100.00;98739.81;5092485;28;20378;-80
2022/07/01 08:09:26;;;;;;;;;;;;;;;17.37;100.00;98727.28;5094130;28;19928;-80
2022/07/01 08:11:53;;;;;;;;;;;;;;;17.49;100.00;98727.06;5084380;28;19952;-81
2022/07/01 08:14:20;;;;;;;;;;;;;;;17.70;100.00;98745.81;5092309;28;19974;-80
2022/07/01 08:16:49;;;;;;;;;;;;;;;17.67;100.00;98746.78;5091707;28;19960;-80
2022/07/01 08:19:16;;;;;;;;;;;;;;;17.22;100.00;98744.09;5093092;28;19935;-80
2022/07/01 08:21:43;;;;;;;;;;;;;;;17.23;100.00;98751.34;5093440;28;19924;-79
2022/07/01 08:24:10;;;;;;;;;;;;;;;17.06;100.00;98758.59;5092724;28;19931;-80
2022/07/01 08:26:37;;;;;;;;;;;;;;;17.36;100.00;98759.59;5092649;28;19947;-80
2022/07/01 08:29:04;;;;;;;;;;;;;;;17.69;100.00;98758.38;5092499;28;19931;-80
2022/07/01 08:31:31;;;;;;;;;;;;;;;17.36;100.00;98745.47;5075508;28;19928;-80
2022/07/01 08:33:58;;;;;;;;;;;;;;;17.16;100.00;98757.31;5075296;28;20330;-79
2022/07/01 08:36:26;;;;;;;;;;;;;;;17.22;100.00;98766.69;5093365;28;19924;-79
2022/07/01 08:38:53;;;;;;;;;;;;;;;17.29;100.00;98760.72;5092294;28;19924;-80
2022/07/01 08:41:20;;;;;;;;;;;;;;;17.32;100.00;98764.63;5075590;28;20161;-80
2022/07/01 08:43:47;;;;;;;;;;;;;;;17.23;100.00;98767.47;5092181;28;19928;-80
2022/07/01 08:46:14;;;;;;;;;;;;;;;17.24;100.00;98764.19;5093373;28;19924;-80
2022/07/01 08:48:45;;;;;;;;;;;;;;;17.41;100.00;98764.59;5093233;28;20354;-79
2022/07/01 08:51:12;;;;;;;;;;;;;;;17.39;100.00;98755.81;5074992;28;19924;-79
2022/07/01 08:53:39;;;;;;;;;;;;;;;17.58;100.00;98760.94;5093369;28;20434;-80
2022/07/01 08:58:51;;;;;;;;;;;;;;;17.99;100.00;98771.38;5093261;28;19963;-80
2022/07/01 09:01:20;;;;;;;;;;;;;;;17.67;100.00;98774.25;5091729;28;19932;-80
2022/07/01 09:03:48;;;;;;;;;;;;;;;17.76;100.00;98765.72;5093249;28;20023;-80
2022/07/01 09:06:16;;;;;;;;;;;;;;;17.56;100.00;98762.69;5092930;28;19928;-80
2022/07/01 09:08:44;;;;;;;;;;;;;;;17.72;100.00;98767.94;5091918;28;19983;-80
2022/07/01 09:11:17;;;;;;;;;;;;;;;17.62;100.00;98761.56;5075153;28;20323;-80
2022/07/01 09:13:44;;;;;;;;;;;;;;;17.97;100.00;98761.84;5091853;28;20051;-80
2022/07/01 09:16:13;;;;;;;;;;;;;;;17.93;100.00;98764.81;5091581;28;19931;-80
2022/07/01 09:18:40;;;;;;;;;;;;;;;18.14;100.00;98767.84;5075192;28;20014;-80
2022/07/01 09:21:10;;;;;;;;;;;;;;;18.64;100.00;98773.31;5091478;28;19924;-80
2022/07/01 09:23:38;;;;;;;;;;;;;;;18.84;100.00;98773.41;5074960;28;19970;-80
2022/07/01 09:26:06;;;;;;;;;;;;;;;18.86;100.00;98762.41;5093463;28;19924;-79
2022/07/01 09:28:33;;;;;;;;;;;;;;;18.64;100.00;98761.22;5097204;28;19977;-80
2022/07/01 09:31:00;;;;;;;;;;;;;;;18.92;100.00;98765.31;5095551;28;20371;-80
2022/07/01 09:33:29;;;;;;;;;;;;;;;18.91;100.00;98761.75;5097164;28;19934;-80
2022/07/01 09:35:57;;;;;;;;;;;;;;;19.14;100.00;98766.53;5096842;28;20283;-80
2022/07/01 09:38:25;;;;;;;;;;;;;;;19.45;100.00;98769.66;5078992;28;19928;-80
2022/07/01 09:40:55;;;;;;;;;;;;;;;19.59;100.00;98770.91;5095800;28;20378;-80
2022/07/01 09:43:26;;;;;;;;;;;;;;;19.72;100.00;98781.94;5095750;28;19931;-80
2022/07/01 09:46:09;;;;;;;;;;;;;;;19.73;100.00;98769.31;5096593;28;19928;-80
2022/07/01 09:48:36;;;;;;;;;;;;;;;19.59;100.00;98768.88;5095390;28;20027;-80
2022/07/01 09:51:08;;;;;;;;;;;;;;;19.54;100.00;98778.03;5078694;28;19931;-80
2022/07/01 09:53:40;;;;;;;;;;;;;;;19.90;100.00;98765.47;5096800;28;19985;-80
2022/07/01 09:56:07;;;;;;;;;;;;;;;20.06;100.00;98783.97;5095418;28;19931;-80
2022/07/01 09:58:35;;;;;;;;;;;;;;;19.78;100.00;98780.72;5096696;28;19924;-80
2022/07/01 10:01:03;;;;;;;;;;;;;;;19.51;100.00;98778.25;5095180;28;20330;-80
2022/07/01 10:03:31;;;;;;;;;;;;;;;19.51;100.00;98783.91;5096511;28;19932;-80
2022/07/01 10:06:07;;;;;;;;;;;;;;;19.77;100.00;98778.38;5096413;28;19932;-79
2022/07/01 10:08:43;;;;;;;;;;;;;;;20.22;100.00;98783.47;5096428;28;19924;-79
2022/07/01 10:11:25;;;;;;;;;;;;;;;19.98;100.00;98783.59;5095085;28;20058;-80
2022/07/01 10:13:53;;;;;;;;;;;;;;;20.11;100.00;98783.28;5096086;28;19924;-79
2022/07/01 10:16:20;;;;;;;;;;;;;;;19.92;100.00;98773.47;5095075;28;19924;-79
2022/07/01 10:18:47;;;;;;;;;;;;;;;19.54;100.00;98789.38;5078155;28;20375;-79
2022/07/01 10:21:34;;;;;;;;;;;;;;;19.45;100.00;98775.31;5095877;28;19947;-80
2022/07/01 10:24:12;;;;;;;;;;;;;;;20.02;100.00;98783.41;5096006;28;19924;-79
2022/07/01 10:26:39;;;;;;;;;;;;;;;20.15;100.00;98781.81;5096112;28;19932;-80
2022/07/01 10:29:26;;;;;;;;;;;;;;;20.40;100.00;98777.50;5094542;28;20433;-80
2022/07/01 10:31:54;;;;;;;;;;;;;;;20.51;100.00;98780.47;5094638;28;20038;-80
2022/07/01 10:34:24;;;;;;;;;;;;;;;20.50;100.00;98776.09;5095987;28;20413;-80
2022/07/01 10:37:01;;;;;;;;;;;;;;;20.65;100.00;98782.47;5094640;28;20049;-80
2022/07/01 10:39:28;;;;;;;;;;;;;;;20.67;100.00;98782.75;5095181;28;20116;-79
2022/07/01 10:41:57;;;;;;;;;;;;;;;20.72;100.00;98799.06;5095751;28;19931;-79
2022/07/01 10:44:59;;;;;;;;;;;;;;;20.73;100.00;98787.22;5095437;28;19924;-80
2022/07/01 10:47:26;;;;;;;;;;;;;;;20.94;100.00;98785.13;5094470;28;19924;-80
2022/07/01 10:49:55;;;;;;;;;;;;;;;20.92;100.00;98787.66;5061114;28;20303;-80
2022/07/01 10:52:22;;;;;;;;;;;;;;;21.03;100.00;98776.47;5094269;28;19928;-79
2022/07/01 10:54:53;;;;;;;;;;;;;;;20.83;100.00;98785.00;5095364;28;19924;-79
2022/07/01 10:57:24;;;;;;;;;;;;;;;20.79;100.00;98790.91;5095082;28;20044;-80
2022/07/01 10:59:56;;;;;;;;;;;;;;;20.75;100.00;98778.97;5095401;28;19924;-80
2022/07/01 11:02:28;;;;;;;;;;;;;;;20.85;100.00;98790.97;5095512;28;19924;-79
2022/07/01 11:05:02;;;;;;;;;;;;;;;20.75;100.00;98786.72;5094953;28;19930;-80
2022/07/01 11:07:30;;;;;;;;;;;;;;;20.76;100.00;98791.91;5094139;28;20089;-80
2022/07/01 11:09:59;;;;;;;;;;;;;;;20.24;100.00;98790.19;5095130;28;20375;-80
2022/07/01 11:12:27;;;;;;;;;;;;;;;19.90;100.00;98798.69;5094726;28;19924;-79
2022/07/01 11:14:55;;;;;;;;;;;;;;;19.91;100.00;98800.25;5093776;28;19935;-79
2022/07/01 11:17:22;;;;;;;;;;;;;;;19.70;100.00;98803.03;5095029;28;20383;-79
2022/07/01 11:19:53;;;;;;;;;;;;;;;19.70;100.00;98799.44;5095069;28;20280;-80
2022/07/01 11:22:21;;;;;;;;;;;;;;;19.88;100.00;98801.25;5094787;28;20371;-80
2022/07/01 11:24:54;;;;;;;;;;;;;;;20.22;100.00;98804.09;5094939;28;19966;-80
2022/07/01 11:27:27;;;;;;;;;;;;;;;20.82;100.00;98797.63;5093552;28;19924;-80
2022/07/01 11:29:56;;;;;;;;;;;;;;;21.04;100.00;98793.00;5093512;28;19928;-80
2022/07/01 11:32:30;;;;;;;;;;;;;;;20.92;100.00;98794.13;5093435;28;19924;-80
2022/07/01 11:34:59;;;;;;;;;;;;;;;21.01;100.00;98790.38;5093450;28;19924;-79
2022/07/01 11:40:13;;;;;;;;;;;;;;;20.92;100.00;98776.31;5094721;28;19973;-80
2022/07/01 11:42:41;;;;;;;;;;;;;;;21.14;100.00;98771.66;5094311;28;19924;-80
2022/07/01 11:45:22;;;;;;;;;;;;;;;21.47;100.00;98776.09;5093313;28;20031;-80
2022/07/01 11:47:49;;;;;;;;;;;;;;;21.65;100.00;98779.34;5093103;28;19928;-80
2022/07/01 11:50:16;;;;;;;;;;;;;;;21.99;100.00;98780.41;5092240;28;20371;-80
2022/07/01 11:52:44;;;;;;;;;;;;;;;21.57;100.00;98775.41;5094490;28;19930;-79
2022/07/01 11:55:18;;;;;;;;;;;;;;;21.17;100.00;98775.56;5094060;28;20337;-79
2022/07/01 11:58:22;;;;;;;;;;;;;;;20.98;100.00;98775.13;5092516;28;20288;-80
2022/07/01 12:00:50;;;;;;;;;;;;;;;21.52;100.00;98773.31;5093902;28;19965;-80
2022/07/01 12:03:30;;;;;;;;;;;;;;;21.62;100.00;98777.50;5094002;28;20275;-80
2022/07/01 12:05:58;;;;;;;;;;;;;;;21.07;100.00;98782.69;5094103;28;20396;-80
2022/07/01 12:08:25;;;;;;;;;;;;;;;20.89;100.00;98788.66;5093833;28;19931;-80
2022/07/01 12:10:53;;;;;;;;;;;;;;;20.25;100.00;98797.44;5080995;28;19931;-80
2022/07/01 12:13:20;;;;;;;;;;;;;;;20.59;100.00;98810.00;5090010;28;19936;-80
2022/07/01 12:15:48;;;;;;;;;;;;;;;20.53;100.00;98801.44;5092526;28;19924;-80
2022/07/01 12:18:15;;;;;;;;;;;;;;;20.78;100.00;98782.88;5092558;28;20256;-80
2022/07/01 12:20:52;;;;;;;;;;;;;;;21.00;100.00;98783.94;5093076;28;20397;-80
2022/07/01 12:23:19;;;;;;;;;;;;;;;21.02;100.00;98781.34;5093831;28;20318;-78
2022/07/01 12:25:49;;;;;;;;;;;;;;;20.55;100.00;98783.91;5093684;28;19925;-78
2022/07/01 12:28:27;;;;;;;;;;;;;;;20.29;100.00;98797.22;5093298;28;20318;-78
2022/07/01 12:30:59;;;;;;;;;;;;;;;20.48;100.00;98799.28;5093526;28;19931;-78
2022/07/01 12:33:26;;;;;;;;;;;;;;;20.71;100.00;98789.78;5092247;28;19928;-78
2022/07/01 12:35:54;;;;;;;;;;;;;;;21.23;100.00;98790.63;5093576;28;20386;-77
2022/07/01 12:38:21;;;;;;;;;;;;;;;21.14;100.00;98790.78;5093064;28;19924;-78
2022/07/01 12:40:49;;;;;;;;;;;;;;;21.62;100.00;98788.09;5092951;28;19928;-78
2022/07/01 12:43:28;;;;;;;;;;;;;;;21.51;100.00;98780.25;5093098;28;19947;-78
2022/07/01 12:45:58;;;;;;;;;;;;;;;21.16;100.00;98791.03;5091959;28;19938;-78
2022/07/01 12:48:26;;;;;;;;;;;;;;;21.06;100.00;98792.50;5093265;28;20375;-78
2022/07/01 12:50:57;;;;;;;;;;;;;;;20.78;100.00;98814.13;5075742;28;19931;-80
2022/07/01 12:53:25;;;;;;;;;;;;;;;20.10;100.00;98801.59;5092633;28;19924;-80
2022/07/01 12:55:55;;;;;;;;;;;;;;;20.15;100.00;98815.06;5092968;28;19925;-80